createdAt,value
2019-03-13T00:00:36.683Z,3.30
2019-03-13T00:03:08.683Z,3.30
2019-03-13T00:05:40.040Z,3.30
2019-03-13T00:08:11.180Z,3.30
2019-03-13T00:10:43.380Z,3.30
2019-03-13T00:13:14.491Z,3.40
2019-03-13T00:15:45.784Z,3.40
2019-03-13T00:18:16.960Z,3.40
2019-03-13T00:20:48.162Z,3.40
2019-03-13T00:23:19.226Z,3.50
2019-03-13T00:25:50.383Z,3.50
2019-03-13T00:28:21.428Z,3.50
2019-03-13T00:30:52.700Z,3.50
2019-03-13T00:33:23.790Z,3.40
2019-03-13T00:35:54.850Z,3.40
2019-03-13T00:38:25.775Z,3.30
2019-03-13T00:40:57.159Z,3.30
2019-03-13T00:43:28.260Z,3.30
2019-03-13T00:45:59.543Z,3.30
2019-03-13T00:48:30.708Z,3.30
2019-03-13T00:51:01.906Z,3.30
2019-03-13T00:53:32.949Z,3.30
2019-03-13T00:56:04.202Z,3.30
2019-03-13T00:58:35.174Z,3.30
2019-03-13T01:01:19.276Z,3.30
2019-03-13T01:03:59.993Z,3.20
2019-03-13T01:06:37.281Z,3.20
2019-03-13T01:09:09.559Z,3.20
2019-03-13T01:11:40.801Z,3.20
2019-03-13T01:14:11.940Z,3.20
2019-03-13T01:16:42.950Z,3.20
2019-03-13T01:19:14.024Z,3.10
2019-03-13T01:21:45.162Z,3.10
2019-03-13T01:24:16.352Z,3.00
2019-03-13T01:26:47.432Z,3.00
2019-03-13T01:29:19.134Z,3.00
2019-03-13T01:32:21.335Z,3.10
2019-03-13T01:35:04.901Z,3.00
2019-03-13T01:37:36.072Z,3.00
2019-03-13T01:40:11.700Z,3.00
2019-03-13T01:42:42.807Z,3.00
2019-03-13T01:45:14.078Z,3.00
2019-03-13T01:47:46.251Z,3.00
2019-03-13T01:50:17.337Z,3.00
2019-03-13T01:52:48.554Z,3.00
2019-03-13T01:55:19.600Z,2.90
2019-03-13T01:57:50.611Z,2.90
2019-03-13T02:00:21.672Z,2.90
2019-03-13T02:02:52.655Z,2.80
2019-03-13T02:05:24.763Z,2.80
2019-03-13T02:07:56.068Z,2.80
2019-03-13T02:10:27.182Z,2.80
2019-03-13T02:12:58.315Z,2.80
2019-03-13T02:15:29.321Z,2.80
2019-03-13T02:18:00.518Z,2.80
2019-03-13T02:20:32.808Z,2.80
2019-03-13T02:23:03.859Z,2.90
2019-03-13T02:25:34.910Z,2.90
2019-03-13T02:28:06.139Z,2.90
2019-03-13T02:30:37.252Z,2.90
2019-03-13T02:33:08.590Z,2.80
2019-03-13T02:35:39.776Z,2.90
2019-03-13T02:38:10.851Z,2.90
2019-03-13T02:40:42.918Z,2.80
2019-03-13T02:43:14.008Z,2.80
2019-03-13T02:45:44.976Z,2.80
2019-03-13T02:48:15.987Z,2.80
2019-03-13T02:50:46.927Z,2.80
2019-03-13T02:53:18.079Z,2.80
2019-03-13T02:55:49.089Z,2.80
2019-03-13T02:58:20.062Z,2.70
2019-03-13T03:01:00.333Z,2.70
2019-03-13T03:03:33.954Z,2.70
2019-03-13T03:06:05.176Z,2.70
2019-03-13T03:08:36.188Z,2.70
2019-03-13T03:11:07.448Z,2.60
2019-03-13T03:13:38.494Z,2.60
2019-03-13T03:16:09.399Z,2.60
2019-03-13T03:18:40.740Z,2.70
2019-03-13T03:21:11.827Z,2.60
2019-03-13T03:23:45.146Z,2.60
2019-03-13T03:26:15.696Z,2.60
2019-03-13T03:28:46.868Z,2.60
2019-03-13T03:31:17.810Z,2.60
2019-03-13T03:34:02.737Z,2.60
2019-03-13T03:36:37.057Z,2.60
2019-03-13T03:39:08.720Z,2.60
2019-03-13T03:41:40.968Z,2.60
2019-03-13T03:44:12.171Z,2.60
2019-03-13T03:46:43.071Z,2.60
2019-03-13T03:49:14.147Z,2.60
2019-03-13T03:51:45.146Z,2.50
2019-03-13T03:54:16.302Z,2.50
2019-03-13T03:56:47.356Z,2.50
2019-03-13T03:59:18.552Z,2.60
2019-03-13T04:01:49.441Z,2.60
2019-03-13T04:04:20.549Z,2.60
2019-03-13T04:06:52.027Z,2.60
2019-03-13T04:09:24.141Z,2.60
2019-03-13T04:11:54.999Z,2.60
2019-03-13T04:14:26.132Z,2.60
2019-03-13T04:16:57.260Z,2.60
2019-03-13T04:19:28.352Z,2.60
2019-03-13T04:21:59.366Z,2.60
2019-03-13T04:24:30.389Z,2.60
2019-03-13T04:27:01.446Z,2.60
2019-03-13T04:29:32.414Z,2.70
2019-03-13T04:32:03.499Z,2.70
2019-03-13T04:34:34.588Z,2.70
2019-03-13T04:37:05.499Z,2.70
2019-03-13T04:39:36.473Z,2.70
2019-03-13T04:42:08.068Z,2.70
2019-03-13T04:44:39.862Z,2.70
2019-03-13T04:47:10.974Z,2.70
2019-03-13T04:49:42.009Z,2.70
2019-03-13T04:52:12.912Z,2.70
2019-03-13T04:54:43.992Z,2.80
2019-03-13T04:57:15.008Z,2.80
2019-03-13T04:59:46.332Z,2.70
2019-03-13T05:02:17.286Z,2.70
2019-03-13T05:04:48.380Z,2.80
2019-03-13T05:07:19.336Z,2.70
2019-03-13T05:09:50.589Z,2.70
2019-03-13T05:12:21.547Z,2.70
2019-03-13T05:14:52.875Z,2.70
2019-03-13T05:17:24.098Z,2.70
2019-03-13T05:19:55.135Z,2.70
2019-03-13T05:22:27.815Z,2.70
2019-03-13T05:24:59.496Z,2.70
2019-03-13T05:27:30.654Z,2.70
2019-03-13T05:32:52.862Z,2.80
2019-03-13T05:35:23.938Z,2.80
2019-03-13T05:37:55.670Z,2.80
2019-03-13T05:40:27.358Z,2.80
2019-03-13T05:42:58.515Z,2.80
2019-03-13T05:45:29.561Z,2.90
2019-03-13T05:48:00.621Z,2.90
2019-03-13T05:50:31.794Z,2.90
2019-03-13T05:53:03.855Z,3.00
2019-03-13T05:55:35.026Z,3.00
2019-03-13T05:58:06.851Z,3.00
2019-03-13T06:00:38.578Z,3.00
2019-03-13T06:03:10.090Z,3.00
2019-03-13T06:05:41.650Z,3.00
2019-03-13T06:08:14.369Z,3.00
2019-03-13T06:10:45.933Z,3.10
2019-03-13T06:13:17.689Z,3.10
2019-03-13T06:15:49.337Z,3.10
2019-03-13T06:18:21.058Z,3.10
2019-03-13T06:20:52.891Z,3.10
2019-03-13T06:23:24.609Z,3.20
2019-03-13T06:25:56.291Z,3.20
2019-03-13T06:28:28.169Z,3.20
2019-03-13T06:31:01.097Z,3.30
2019-03-13T06:33:32.737Z,3.30
2019-03-13T06:36:04.579Z,3.40
2019-03-13T06:38:36.174Z,3.40
2019-03-13T06:41:07.864Z,3.40
2019-03-13T06:43:39.698Z,3.50
2019-03-13T06:46:13.981Z,3.50
2019-03-13T06:48:45.939Z,3.50
2019-03-13T06:51:17.770Z,3.50
2019-03-13T06:53:50.071Z,3.60
2019-03-13T06:56:22.176Z,3.60
2019-03-13T06:59:08.368Z,3.60
2019-03-13T07:01:49.310Z,3.60
2019-03-13T07:04:58.360Z,3.60
2019-03-13T07:07:47.104Z,3.50
2019-03-13T07:10:39.745Z,3.40
2019-03-13T07:13:23.271Z,3.30
2019-03-13T07:16:19.896Z,3.20
2019-03-13T07:18:59.210Z,3.20
2019-03-13T07:21:43.296Z,3.10
2019-03-13T07:24:47.439Z,3.00
2019-03-13T07:27:30.127Z,2.90
2019-03-13T07:30:13.811Z,2.80
2019-03-13T07:33:18.864Z,2.80
2019-03-13T07:36:08.571Z,2.70
2019-03-13T07:39:07.821Z,2.70
2019-03-13T07:42:10.250Z,2.60
2019-03-13T07:45:09.072Z,2.60
2019-03-13T07:47:53.842Z,2.60
2019-03-13T07:50:34.201Z,2.50
2019-03-13T07:53:22.895Z,2.60
2019-03-13T07:56:05.971Z,2.60
2019-03-13T07:58:51.052Z,2.50
2019-03-13T08:01:56.098Z,2.50
2019-03-13T08:04:52.854Z,2.50
2019-03-13T08:07:41.439Z,2.50
2019-03-13T08:10:30.502Z,2.60
2019-03-13T08:13:17.275Z,2.60
2019-03-13T08:16:05.988Z,2.60
2019-03-13T08:19:01.892Z,2.60
2019-03-13T08:21:45.833Z,2.60
2019-03-13T08:24:34.526Z,2.60
2019-03-13T08:27:36.871Z,2.60
2019-03-13T08:30:36.112Z,2.70
2019-03-13T08:33:15.340Z,2.70
2019-03-13T08:36:05.412Z,2.70
2019-03-13T08:38:58.221Z,2.80
2019-03-13T08:41:57.392Z,2.80
2019-03-13T08:44:47.980Z,2.90
2019-03-13T08:47:31.061Z,2.90
2019-03-13T08:50:17.923Z,2.90
2019-03-13T08:53:10.389Z,3.00
2019-03-13T08:55:51.670Z,3.00
2019-03-13T08:58:38.917Z,3.00
2019-03-13T09:01:29.717Z,3.00
2019-03-13T09:04:29.089Z,3.00
2019-03-13T09:07:31.621Z,3.10
2019-03-13T09:10:17.925Z,3.10
2019-03-13T09:13:01.300Z,3.20
2019-03-13T09:16:00.405Z,3.30
2019-03-13T09:18:56.875Z,3.30
2019-03-13T09:21:59.198Z,3.40
2019-03-13T09:24:56.198Z,3.50
2019-03-13T09:27:46.646Z,3.60
2019-03-13T09:30:40.126Z,3.80
2019-03-13T09:33:30.983Z,3.90
2019-03-13T09:36:21.722Z,4.00
2019-03-13T09:39:25.636Z,4.10
2019-03-13T09:42:21.963Z,4.10
2019-03-13T09:45:15.156Z,4.20
2019-03-13T09:48:08.368Z,4.20
2019-03-13T09:50:59.595Z,4.20
2019-03-13T09:54:08.080Z,4.20
2019-03-13T09:57:00.209Z,4.20
2019-03-13T09:59:59.894Z,4.20
2019-03-13T10:02:50.689Z,4.20
2019-03-13T10:05:30.144Z,4.40
2019-03-13T10:08:23.287Z,4.90
2019-03-13T10:11:12.959Z,5.60
2019-03-13T10:14:09.620Z,6.70
2019-03-13T10:16:53.267Z,7.30
2019-03-13T10:19:56.179Z,7.60
2019-03-13T10:23:00.643Z,7.70
2019-03-13T10:25:40.564Z,8.20
2019-03-13T10:28:27.685Z,8.60
2019-03-13T10:31:24.588Z,8.90
2019-03-13T10:34:18.962Z,9.10
2019-03-13T10:37:24.029Z,9.30
2019-03-13T10:40:20.479Z,9.40
2019-03-13T10:43:04.079Z,9.90
2019-03-13T10:45:54.436Z,10.30
2019-03-13T10:48:43.016Z,10.60
2019-03-13T10:51:38.970Z,10.60
2019-03-13T10:54:35.094Z,10.80
2019-03-13T10:57:24.152Z,10.80
2019-03-13T11:00:18.327Z,10.90
2019-03-13T11:03:06.030Z,11.40
2019-03-13T11:06:05.506Z,11.70
2019-03-13T11:09:08.491Z,12.00
2019-03-13T11:11:51.638Z,12.20
2019-03-13T11:14:42.058Z,12.20
2019-03-13T11:17:32.504Z,12.20
2019-03-13T11:20:23.029Z,12.40
2019-03-13T11:23:13.603Z,12.70
2019-03-13T11:26:03.821Z,12.70
2019-03-13T11:28:47.982Z,12.60
2019-03-13T11:31:37.368Z,12.60
2019-03-13T11:34:20.062Z,12.60
2019-03-13T11:37:05.267Z,12.10
2019-03-13T11:40:06.026Z,12.20
2019-03-13T11:42:53.631Z,12.10
2019-03-13T11:45:50.263Z,11.30
2019-03-13T11:48:34.220Z,10.20
2019-03-13T11:51:30.591Z,10.40
2019-03-13T11:54:21.650Z,10.50
2019-03-13T11:57:15.077Z,10.00
2019-03-13T12:00:03.882Z,9.70
2019-03-13T12:02:54.141Z,9.80
2019-03-13T12:05:55.956Z,10.30
2019-03-13T12:08:49.192Z,10.50
2019-03-13T12:11:42.335Z,10.60
2019-03-13T12:14:26.696Z,10.80
2019-03-13T12:17:04.457Z,11.10
2019-03-13T12:19:44.410Z,11.10
2019-03-13T12:22:32.111Z,11.30
2019-03-13T12:25:26.469Z,11.80
2019-03-13T12:28:10.130Z,12.70
2019-03-13T12:30:57.263Z,13.40
2019-03-13T12:33:52.588Z,13.60
2019-03-13T12:36:42.093Z,13.70
2019-03-13T12:39:31.620Z,13.40
2019-03-13T12:42:28.007Z,13.40
2019-03-13T12:45:21.116Z,13.60
2019-03-13T12:48:16.937Z,13.70
2019-03-13T12:50:58.705Z,13.60
2019-03-13T12:53:52.370Z,13.50
2019-03-13T12:56:52.092Z,12.50
2019-03-13T12:59:40.241Z,11.30
2019-03-13T13:02:25.441Z,10.50
2019-03-13T13:05:21.291Z,10.00
2019-03-13T13:08:06.111Z,9.70
2019-03-13T13:10:50.358Z,9.50
2019-03-13T13:13:55.405Z,9.30
2019-03-13T13:16:34.909Z,9.10
2019-03-13T13:19:06.642Z,9.00
2019-03-13T13:21:37.975Z,8.90
2019-03-13T13:24:09.975Z,8.90
2019-03-13T13:26:41.707Z,8.80
2019-03-13T13:29:13.641Z,8.80
2019-03-13T13:31:44.867Z,8.80
2019-03-13T13:34:15.907Z,8.70
2019-03-13T13:36:46.950Z,8.70
2019-03-13T13:39:19.954Z,8.60
2019-03-13T13:41:51.802Z,8.50
2019-03-13T13:44:24.039Z,8.40
2019-03-13T13:46:56.059Z,8.40
2019-03-13T13:49:27.145Z,8.30
2019-03-13T13:51:58.699Z,8.20
2019-03-13T13:54:30.182Z,8.20
2019-03-13T13:57:01.746Z,8.20
2019-03-13T13:59:33.533Z,8.20
2019-03-13T14:02:04.847Z,8.10
2019-03-13T14:04:36.054Z,8.10
2019-03-13T14:07:08.405Z,8.10
2019-03-13T14:09:39.957Z,8.00
2019-03-13T14:12:11.771Z,8.00
2019-03-13T14:14:45.892Z,8.00
2019-03-13T14:17:17.517Z,8.00
2019-03-13T14:19:49.430Z,8.10
2019-03-13T14:22:21.200Z,8.20
2019-03-13T14:24:53.606Z,8.20
2019-03-13T14:27:25.345Z,8.20
2019-03-13T14:29:57.096Z,8.30
2019-03-13T14:32:28.866Z,8.30
2019-03-13T14:35:00.678Z,8.40
2019-03-13T14:37:32.444Z,8.50
2019-03-13T14:40:04.899Z,8.60
2019-03-13T14:42:36.589Z,8.50
2019-03-13T14:45:08.405Z,8.40
2019-03-13T14:47:40.190Z,8.30
2019-03-13T14:50:13.261Z,8.20
2019-03-13T14:52:45.410Z,8.20
2019-03-13T14:55:17.575Z,8.10
2019-03-13T14:57:49.268Z,8.00
2019-03-13T15:00:21.046Z,7.90
2019-03-13T15:02:55.166Z,7.90
2019-03-13T15:05:27.916Z,7.80
2019-03-13T15:07:59.350Z,7.80
2019-03-13T15:10:32.274Z,7.70
2019-03-13T15:13:05.137Z,7.70
2019-03-13T15:15:36.515Z,7.60
2019-03-13T15:18:08.183Z,7.60
2019-03-13T15:20:39.860Z,7.50
2019-03-13T15:23:11.679Z,7.50
2019-03-13T15:25:43.297Z,7.50
2019-03-13T15:28:17.323Z,7.50
2019-03-13T15:30:48.277Z,7.50
2019-03-13T15:33:19.504Z,7.40
2019-03-13T15:35:51.364Z,7.40
2019-03-13T15:38:22.380Z,7.40
2019-03-13T15:40:54.324Z,7.40
2019-03-13T15:43:25.974Z,7.30
2019-03-13T15:45:58.733Z,7.30
2019-03-13T15:48:33.713Z,7.30
2019-03-13T15:51:06.765Z,7.30
2019-03-13T15:53:39.191Z,7.30
2019-03-13T15:56:10.415Z,7.30
2019-03-13T15:58:41.617Z,7.30
2019-03-13T16:01:13.308Z,7.20
2019-03-13T16:03:44.587Z,7.20
2019-03-13T16:10:05.795Z,7.20
2019-03-13T16:12:56.840Z,7.10
2019-03-13T16:15:29.252Z,7.10
2019-03-13T16:18:01.538Z,7.10
2019-03-13T16:20:33.439Z,7.10
2019-03-13T16:23:05.290Z,7.10
2019-03-13T16:25:36.935Z,7.10
2019-03-13T16:28:08.466Z,7.00
2019-03-13T16:30:41.650Z,7.00
2019-03-13T16:33:13.557Z,7.00
2019-03-13T16:35:45.583Z,7.00
2019-03-13T16:38:19.289Z,7.00
2019-03-13T16:40:51.443Z,7.00
2019-03-13T16:43:24.978Z,7.00
2019-03-13T16:45:56.602Z,7.00
2019-03-13T16:48:28.702Z,7.00
2019-03-13T16:51:02.864Z,6.90
2019-03-13T16:53:35.307Z,6.90
2019-03-13T16:56:11.045Z,6.90
2019-03-13T16:58:43.769Z,6.90
2019-03-13T17:01:15.492Z,6.90
2019-03-13T17:03:47.243Z,6.90
2019-03-13T17:06:18.465Z,6.90
2019-03-13T17:08:50.003Z,6.90
2019-03-13T17:11:21.627Z,6.90
2019-03-13T17:13:53.059Z,6.90
2019-03-13T17:16:24.195Z,6.90
2019-03-13T17:18:55.438Z,6.90
2019-03-13T17:21:26.849Z,6.90
2019-03-13T17:23:58.096Z,6.90
2019-03-13T17:26:29.094Z,6.90
2019-03-13T17:29:00.241Z,7.00
2019-03-13T17:31:31.364Z,7.00
2019-03-13T17:34:02.599Z,7.00
2019-03-13T17:36:33.572Z,7.00
2019-03-13T17:39:06.412Z,7.00
2019-03-13T17:41:39.086Z,7.00
2019-03-13T17:44:10.477Z,6.90
2019-03-13T17:46:41.706Z,6.90
2019-03-13T17:49:13.283Z,6.90
2019-03-13T17:51:48.126Z,6.90
2019-03-13T17:54:18.073Z,6.90
2019-03-13T17:56:49.676Z,6.90
2019-03-13T17:59:21.328Z,6.90
2019-03-13T18:01:52.326Z,6.90
2019-03-13T18:04:23.929Z,6.90
2019-03-13T18:06:55.801Z,6.90
2019-03-13T18:09:27.453Z,6.90
2019-03-13T18:11:59.181Z,6.90
2019-03-13T18:14:32.183Z,7.00
2019-03-13T18:17:03.716Z,6.90
2019-03-13T18:19:35.591Z,6.90
2019-03-13T18:22:08.040Z,7.00
2019-03-13T18:24:39.951Z,7.00
2019-03-13T18:27:11.620Z,7.00
2019-03-13T18:29:43.449Z,7.00
2019-03-13T18:32:15.241Z,7.00
2019-03-13T18:34:48.751Z,7.00
2019-03-13T18:37:20.486Z,7.00
2019-03-13T18:39:55.048Z,7.10
2019-03-13T18:42:27.547Z,7.10
2019-03-13T18:45:01.260Z,7.10
2019-03-13T18:47:33.708Z,7.10
2019-03-13T18:50:05.780Z,7.10
2019-03-13T18:52:37.583Z,7.20
2019-03-13T18:55:10.353Z,7.20
2019-03-13T18:57:42.316Z,7.20
2019-03-13T19:00:21.134Z,7.20
2019-03-13T19:02:52.907Z,7.10
2019-03-13T19:05:24.636Z,7.10
2019-03-13T19:07:56.266Z,7.10
2019-03-13T19:10:27.765Z,7.20
2019-03-13T19:12:59.511Z,7.10
2019-03-13T19:15:31.360Z,7.10
2019-03-13T19:18:02.895Z,7.10
2019-03-13T19:20:34.674Z,7.10
2019-03-13T19:23:06.299Z,7.10
2019-03-13T19:25:38.135Z,7.10
2019-03-13T19:28:10.165Z,7.10
2019-03-13T19:30:41.880Z,7.10
2019-03-13T19:33:13.474Z,7.10
2019-03-13T19:35:44.824Z,7.00
2019-03-13T19:38:17.535Z,7.00
2019-03-13T19:40:48.837Z,7.10
2019-03-13T19:43:20.020Z,7.00
2019-03-13T19:45:51.398Z,7.00
2019-03-13T19:48:23.026Z,7.00
2019-03-13T19:50:56.578Z,7.00
2019-03-13T19:53:28.106Z,7.00
2019-03-13T19:55:59.848Z,7.00
2019-03-13T19:58:31.580Z,7.00
2019-03-13T20:01:04.609Z,7.00
2019-03-13T20:03:36.015Z,7.00
2019-03-13T20:06:07.545Z,7.00
2019-03-13T20:08:39.617Z,7.00
2019-03-13T20:11:11.203Z,7.00
2019-03-13T20:13:42.361Z,7.00
2019-03-13T20:16:14.061Z,7.00
2019-03-13T20:18:46.192Z,7.10
2019-03-13T20:21:18.101Z,7.00
2019-03-13T20:23:50.366Z,7.00
2019-03-13T20:26:22.665Z,7.00
2019-03-13T20:28:54.450Z,7.00
2019-03-13T20:31:25.827Z,7.00
2019-03-13T20:33:59.886Z,7.00
2019-03-13T20:36:33.146Z,7.00
2019-03-13T20:39:06.232Z,7.00
2019-03-13T20:41:39.200Z,7.00
2019-03-13T20:44:10.443Z,7.00
2019-03-13T20:46:42.150Z,7.00
2019-03-13T20:49:13.786Z,7.00
2019-03-13T20:51:45.359Z,7.00
2019-03-13T20:54:17.036Z,7.00
2019-03-13T20:56:48.214Z,7.00
2019-03-13T20:59:19.406Z,7.00
2019-03-13T21:01:50.621Z,7.00
2019-03-13T21:04:22.329Z,7.00
2019-03-13T21:06:54.446Z,7.00
2019-03-13T21:09:28.600Z,7.10
2019-03-13T21:11:59.806Z,7.00
2019-03-13T21:14:35.745Z,7.00
2019-03-13T21:17:05.881Z,7.00
2019-03-13T21:19:37.054Z,7.00
2019-03-13T21:22:08.515Z,7.00
2019-03-13T21:24:39.471Z,7.00
2019-03-13T21:27:10.728Z,7.00
2019-03-13T21:29:42.861Z,7.00
2019-03-13T21:32:14.243Z,7.10
2019-03-13T21:34:45.307Z,7.10
2019-03-13T21:37:16.437Z,7.10
2019-03-13T21:39:47.515Z,7.00
2019-03-13T21:42:18.657Z,7.00
2019-03-13T21:44:49.824Z,7.00
2019-03-13T21:47:20.845Z,7.00
2019-03-13T21:49:51.897Z,7.00
2019-03-13T21:52:22.970Z,7.00
2019-03-13T21:54:54.028Z,7.00
2019-03-13T21:57:25.012Z,7.00
2019-03-13T21:59:55.920Z,7.00
2019-03-13T22:02:32.544Z,7.00
2019-03-13T22:04:59.652Z,7.00
2019-03-13T22:07:30.873Z,7.00
2019-03-13T22:10:02.065Z,6.90
2019-03-13T22:12:33.349Z,6.90
2019-03-13T22:15:04.506Z,6.90
2019-03-13T22:17:36.846Z,6.90
2019-03-13T22:20:11.123Z,6.90
2019-03-13T22:22:40.845Z,6.90
2019-03-13T22:25:12.762Z,6.90
2019-03-13T22:27:44.029Z,6.90
2019-03-13T22:30:17.876Z,6.80
2019-03-13T22:32:48.891Z,6.90
2019-03-13T22:35:20.139Z,6.80
2019-03-13T22:37:51.352Z,6.80
2019-03-13T22:40:24.696Z,6.80
2019-03-13T22:42:55.797Z,6.80
2019-03-13T22:45:26.751Z,6.80
2019-03-13T22:47:57.813Z,6.80
2019-03-13T22:50:28.734Z,6.80
2019-03-13T22:52:59.715Z,6.70
2019-03-13T22:55:30.649Z,6.80
2019-03-13T22:58:01.720Z,6.70
2019-03-13T23:00:57.412Z,6.70
2019-03-13T23:03:31.393Z,6.80
2019-03-13T23:06:04.020Z,6.70
2019-03-13T23:08:35.116Z,6.70
2019-03-13T23:11:06.332Z,6.70
2019-03-13T23:13:37.616Z,6.70
2019-03-13T23:16:08.789Z,6.70
2019-03-13T23:18:39.753Z,6.70
2019-03-13T23:21:11.238Z,6.70
2019-03-13T23:23:43.333Z,6.60
2019-03-13T23:26:14.566Z,6.60
2019-03-13T23:28:45.599Z,6.60
2019-03-13T23:31:16.614Z,6.60
2019-03-13T23:33:47.655Z,6.60
2019-03-13T23:36:18.593Z,6.50
2019-03-13T23:38:49.503Z,6.50
2019-03-13T23:41:20.449Z,6.50
2019-03-13T23:43:51.400Z,6.50
2019-03-13T23:46:22.316Z,6.50
2019-03-13T23:48:53.348Z,6.40
2019-03-13T23:51:24.202Z,6.40
2019-03-13T23:53:55.151Z,6.40
2019-03-13T23:56:26.033Z,6.40
2019-03-13T23:58:58.515Z,6.30
